createdAt,value
2019-02-19T00:00:04.753Z,1006.05
2019-02-19T00:01:03.653Z,1006.1
2019-02-19T00:02:02.248Z,1006.08
2019-02-19T00:03:00.825Z,1006.09
2019-02-19T00:03:59.464Z,1006.07
2019-02-19T00:04:57.988Z,1006.08
2019-02-19T00:05:56.558Z,1006.11
2019-02-19T00:06:55.249Z,1006.08
2019-02-19T00:07:53.805Z,1006.09
2019-02-19T00:08:52.793Z,1006.08
2019-02-19T00:09:51.382Z,1006.15
2019-02-19T00:10:49.940Z,1006.11
2019-02-19T00:11:48.951Z,1006.09
2019-02-19T00:12:47.685Z,1006.09
2019-02-19T00:13:46.355Z,1006.1
2019-02-19T00:14:45.025Z,1006.04
2019-02-19T00:15:43.583Z,1006.11
2019-02-19T00:16:42.096Z,1006.11
2019-02-19T00:17:40.821Z,1006.11
2019-02-19T00:18:39.450Z,1006.07
2019-02-19T00:19:38.000Z,1006.06
2019-02-19T00:20:36.704Z,1006.06
2019-02-19T00:21:35.461Z,1006.04
2019-02-19T00:22:34.020Z,1006.06
2019-02-19T00:23:32.653Z,1006.05
2019-02-19T00:24:31.232Z,1006.04
2019-02-19T00:25:29.754Z,1006.03
2019-02-19T00:26:28.403Z,1006.03
2019-02-19T00:27:27.222Z,1006
2019-02-19T00:28:25.853Z,1006.06
2019-02-19T00:29:24.738Z,1006.01
2019-02-19T00:30:23.327Z,1006.07
2019-02-19T00:31:21.883Z,1006.06
2019-02-19T00:32:20.397Z,1006.02
2019-02-19T00:33:18.943Z,1006.06
2019-02-19T00:34:17.509Z,1006.05
2019-02-19T00:35:16.094Z,1006.08
2019-02-19T00:36:14.919Z,1006.1
2019-02-19T00:37:13.439Z,1006.06
2019-02-19T00:38:11.975Z,1006.08
2019-02-19T00:39:10.593Z,1006.07
2019-02-19T00:40:09.242Z,1006.03
2019-02-19T00:41:07.796Z,1006.09
2019-02-19T00:42:06.398Z,1006.04
2019-02-19T00:43:04.971Z,1006.08
2019-02-19T00:44:03.529Z,1006.07
2019-02-19T00:45:02.269Z,1006.1
2019-02-19T00:46:00.893Z,1006.11
2019-02-19T00:46:59.507Z,1006.07
2019-02-19T00:47:58.061Z,1006.05
2019-02-19T00:48:57.037Z,1006.1
2019-02-19T00:49:55.622Z,1006.07
2019-02-19T00:50:54.182Z,1006.04
2019-02-19T00:51:52.733Z,1006.02
2019-02-19T00:52:51.326Z,1006.06
2019-02-19T00:53:49.932Z,1005.99
2019-02-19T00:54:48.481Z,1006.01
2019-02-19T00:55:47.203Z,1006.03
2019-02-19T00:56:45.814Z,1006.02
2019-02-19T00:57:44.405Z,1006.03
2019-02-19T00:58:43.133Z,1005.99
2019-02-19T00:59:41.659Z,1005.98
2019-02-19T01:00:40.215Z,1005.99
2019-02-19T01:01:38.831Z,1006.02
2019-02-19T01:02:37.432Z,1006.04
2019-02-19T01:03:35.975Z,1006
2019-02-19T01:04:34.667Z,1006.04
2019-02-19T01:05:33.371Z,1006.05
2019-02-19T01:06:31.888Z,1006.05
2019-02-19T01:07:30.438Z,1006.02
2019-02-19T01:08:29.015Z,1006.05
2019-02-19T01:09:27.647Z,1006.06
2019-02-19T01:10:26.384Z,1006.05
2019-02-19T01:11:24.986Z,1006.04
2019-02-19T01:12:23.532Z,1006.04
2019-02-19T01:13:22.092Z,1006.08
2019-02-19T01:14:20.630Z,1006.04
2019-02-19T01:15:25.204Z,1006.07
2019-02-19T01:16:17.846Z,1006.02
2019-02-19T01:17:16.366Z,1006.08
2019-02-19T01:18:15.046Z,1006.02
2019-02-19T01:19:13.568Z,1006.05
2019-02-19T01:20:12.113Z,1006.02
2019-02-19T01:21:11.066Z,1006.02
2019-02-19T01:22:09.647Z,1006.08
2019-02-19T01:23:08.199Z,1006.07
2019-02-19T01:24:06.738Z,1006.04
2019-02-19T01:25:05.278Z,1006.08
2019-02-19T01:26:03.846Z,1006.02
2019-02-19T01:27:02.397Z,1006.01
2019-02-19T01:28:01.057Z,1006
2019-02-19T01:28:59.623Z,1006.03
2019-02-19T01:29:58.160Z,1005.99
2019-02-19T01:30:56.785Z,1005.95
2019-02-19T01:31:55.485Z,1005.97
2019-02-19T01:32:54.041Z,1005.98
2019-02-19T01:33:52.751Z,1005.94
2019-02-19T01:34:51.293Z,1005.98
2019-02-19T01:35:49.836Z,1005.97
2019-02-19T01:36:48.376Z,1005.96
2019-02-19T01:37:47.222Z,1005.93
2019-02-19T01:38:45.806Z,1006
2019-02-19T01:39:44.440Z,1005.95
2019-02-19T01:40:43.170Z,1005.96
2019-02-19T01:41:41.729Z,1006
2019-02-19T01:42:40.435Z,1005.95
2019-02-19T01:43:39.013Z,1005.97
2019-02-19T01:44:37.551Z,1005.95
2019-02-19T01:45:36.143Z,1005.96
2019-02-19T01:46:34.790Z,1005.97
2019-02-19T01:47:33.401Z,1005.94
2019-02-19T01:48:31.940Z,1005.92
2019-02-19T01:49:30.546Z,1005.88
2019-02-19T01:50:29.466Z,1005.89
2019-02-19T01:51:27.988Z,1005.9
2019-02-19T01:52:26.631Z,1005.94
2019-02-19T01:53:25.216Z,1005.91
2019-02-19T01:54:23.764Z,1005.92
2019-02-19T01:55:22.335Z,1005.84
2019-02-19T01:56:21.166Z,1005.91
2019-02-19T01:57:19.718Z,1005.89
2019-02-19T01:58:18.298Z,1005.98
2019-02-19T01:59:17.052Z,1005.92
2019-02-19T02:00:15.618Z,1005.93
2019-02-19T02:01:14.165Z,1005.92
2019-02-19T02:02:12.749Z,1005.88
2019-02-19T02:03:11.339Z,1005.83
2019-02-19T02:04:09.867Z,1005.91
2019-02-19T02:05:08.429Z,1005.87
2019-02-19T02:06:07.004Z,1005.86
2019-02-19T02:07:05.557Z,1005.85
2019-02-19T02:08:04.116Z,1005.83
2019-02-19T02:09:02.778Z,1005.88
2019-02-19T02:10:01.357Z,1005.83
2019-02-19T02:10:59.895Z,1005.85
2019-02-19T02:11:58.474Z,1005.79
2019-02-19T02:12:57.305Z,1005.8
2019-02-19T02:13:55.872Z,1005.82
2019-02-19T02:14:54.488Z,1005.77
2019-02-19T02:15:53.049Z,1005.79
2019-02-19T02:16:51.569Z,1005.76
2019-02-19T02:17:50.137Z,1005.81
2019-02-19T02:18:48.668Z,1005.8
2019-02-19T02:19:47.228Z,1005.75
2019-02-19T02:20:45.771Z,1005.77
2019-02-19T02:21:44.334Z,1005.8
2019-02-19T02:22:43.152Z,1005.81
2019-02-19T02:23:41.692Z,1005.84
2019-02-19T02:24:40.262Z,1005.81
2019-02-19T02:25:38.894Z,1005.82
2019-02-19T02:26:37.497Z,1005.85
2019-02-19T02:27:36.039Z,1005.77
2019-02-19T02:28:34.696Z,1005.75
2019-02-19T02:29:33.282Z,1005.78
2019-02-19T02:30:31.865Z,1005.83
2019-02-19T02:31:30.415Z,1005.77
2019-02-19T02:32:29.047Z,1005.75
2019-02-19T02:33:27.586Z,1005.71
2019-02-19T02:34:26.143Z,1005.77
2019-02-19T02:35:24.855Z,1005.72
2019-02-19T02:36:23.530Z,1005.73
2019-02-19T02:37:22.066Z,1005.74
2019-02-19T02:38:20.809Z,1005.77
2019-02-19T02:39:19.386Z,1005.74
2019-02-19T02:40:17.900Z,1005.72
2019-02-19T02:41:16.471Z,1005.7
2019-02-19T02:42:15.039Z,1005.76
2019-02-19T02:43:13.590Z,1005.77
2019-02-19T02:44:12.125Z,1005.71
2019-02-19T02:45:10.725Z,1005.72
2019-02-19T02:46:09.369Z,1005.74
2019-02-19T02:47:07.929Z,1005.71
2019-02-19T02:48:06.560Z,1005.78
2019-02-19T02:49:05.110Z,1005.78
2019-02-19T02:50:03.647Z,1005.74
2019-02-19T02:51:02.209Z,1005.75
2019-02-19T02:52:00.860Z,1005.74
2019-02-19T02:52:59.477Z,1005.76
2019-02-19T02:53:58.025Z,1005.77
2019-02-19T02:54:56.575Z,1005.77
2019-02-19T02:55:55.183Z,1005.8
2019-02-19T02:56:53.721Z,1005.78
2019-02-19T02:57:52.279Z,1005.79
2019-02-19T02:58:50.813Z,1005.74
2019-02-19T02:59:49.350Z,1005.75
2019-02-19T03:00:47.914Z,1005.74
2019-02-19T03:01:46.512Z,1005.72
2019-02-19T03:02:45.057Z,1005.76
2019-02-19T03:03:43.642Z,1005.72
2019-02-19T03:04:42.170Z,1005.69
2019-02-19T03:05:40.851Z,1005.71
2019-02-19T03:06:39.525Z,1005.67
2019-02-19T03:07:38.087Z,1005.68
2019-02-19T03:08:36.871Z,1005.69
2019-02-19T03:09:35.448Z,1005.71
2019-02-19T03:10:33.968Z,1005.68
2019-02-19T03:11:32.514Z,1005.67
2019-02-19T03:12:31.075Z,1005.67
2019-02-19T03:13:29.611Z,1005.76
2019-02-19T03:14:28.159Z,1005.7
2019-02-19T03:15:26.667Z,1005.73
2019-02-19T03:16:25.409Z,1005.69
2019-02-19T03:17:23.934Z,1005.7
2019-02-19T03:18:22.584Z,1005.72
2019-02-19T03:19:21.401Z,1005.72
2019-02-19T03:20:19.959Z,1005.76
2019-02-19T03:21:18.576Z,1005.65
2019-02-19T03:22:17.117Z,1005.73
2019-02-19T03:23:15.681Z,1005.72
2019-02-19T03:24:14.226Z,1005.72
2019-02-19T03:25:12.784Z,1005.69
2019-02-19T03:26:11.330Z,1005.7
2019-02-19T03:27:09.871Z,1005.72
2019-02-19T03:28:08.391Z,1005.75
2019-02-19T03:29:06.981Z,1005.79
2019-02-19T03:30:05.641Z,1005.76
2019-02-19T03:31:04.212Z,1005.76
2019-02-19T03:32:02.824Z,1005.76
2019-02-19T03:33:01.537Z,1005.75
2019-02-19T03:34:00.067Z,1005.79
2019-02-19T03:34:58.697Z,1005.81
2019-02-19T03:35:57.355Z,1005.76
2019-02-19T03:36:55.869Z,1005.77
2019-02-19T03:37:54.461Z,1005.71
2019-02-19T03:40:34.613Z,1005.71
2019-02-19T03:41:33.394Z,1005.76
2019-02-19T03:42:31.914Z,1005.78
2019-02-19T03:43:30.475Z,1005.75
2019-02-19T03:44:29.197Z,1005.75
2019-02-19T03:45:27.769Z,1005.79
2019-02-19T03:46:26.344Z,1005.77
2019-02-19T03:47:25.032Z,1005.79
2019-02-19T03:48:23.576Z,1005.79
2019-02-19T03:49:22.133Z,1005.81
2019-02-19T03:50:20.734Z,1005.83
2019-02-19T03:51:19.416Z,1005.83
2019-02-19T03:52:17.987Z,1005.86
2019-02-19T03:53:16.723Z,1005.84
2019-02-19T03:54:15.335Z,1005.81
2019-02-19T03:56:38.333Z,1005.79
2019-02-19T03:57:36.868Z,1005.79
2019-02-19T03:58:35.434Z,1005.84
2019-02-19T03:59:33.989Z,1005.87
2019-02-19T04:00:32.540Z,1005.86
2019-02-19T04:01:31.131Z,1005.92
2019-02-19T04:02:29.723Z,1005.88
2019-02-19T04:03:28.254Z,1005.94
2019-02-19T04:04:26.843Z,1005.87
2019-02-19T04:05:25.455Z,1005.88
2019-02-19T04:06:23.988Z,1005.89
2019-02-19T04:07:22.590Z,1005.9
2019-02-19T04:08:21.173Z,1005.95
2019-02-19T04:09:19.727Z,1005.9
2019-02-19T04:10:18.276Z,1005.95
2019-02-19T04:11:16.810Z,1005.92
2019-02-19T04:12:15.414Z,1005.94
2019-02-19T04:13:13.913Z,1005.94
2019-02-19T04:14:12.486Z,1005.95
2019-02-19T04:15:11.311Z,1005.99
2019-02-19T04:16:09.848Z,1005.92
2019-02-19T04:17:08.507Z,1005.93
2019-02-19T04:18:07.200Z,1005.97
2019-02-19T04:19:05.790Z,1005.99
2019-02-19T04:20:04.352Z,1005.98
2019-02-19T04:21:02.931Z,1005.98
2019-02-19T04:22:01.457Z,1005.98
2019-02-19T04:23:00.023Z,1006.01
2019-02-19T04:23:58.844Z,1005.99
2019-02-19T04:24:57.376Z,1006.04
2019-02-19T04:25:55.907Z,1006.09
2019-02-19T04:26:54.452Z,1006.06
2019-02-19T04:27:53.150Z,1006.05
2019-02-19T04:28:51.777Z,1006.07
2019-02-19T04:29:50.302Z,1006.05
2019-02-19T04:30:48.980Z,1006.04
2019-02-19T04:31:47.521Z,1006.09
2019-02-19T04:32:46.111Z,1006.04
2019-02-19T04:33:44.648Z,1006.05
2019-02-19T04:34:43.210Z,1006.05
2019-02-19T04:35:41.742Z,1006.05
2019-02-19T04:36:40.357Z,1005.99
2019-02-19T04:37:38.901Z,1005.98
2019-02-19T04:38:37.555Z,1005.97
2019-02-19T04:39:36.104Z,1005.98
2019-02-19T04:40:35.111Z,1006.01
2019-02-19T04:41:33.665Z,1006
2019-02-19T04:42:32.212Z,1006
2019-02-19T04:43:30.796Z,1006.01
2019-02-19T04:44:29.372Z,1006.01
2019-02-19T04:45:27.930Z,1006
2019-02-19T04:46:31.410Z,1006
2019-02-19T04:47:25.306Z,1005.98
2019-02-19T04:48:23.865Z,1006.04
2019-02-19T04:49:22.874Z,1006.03
2019-02-19T04:50:21.541Z,1006.01
2019-02-19T04:51:20.132Z,1005.97
2019-02-19T04:52:18.869Z,1005.92
2019-02-19T04:53:17.523Z,1005.98
2019-02-19T04:54:16.059Z,1005.94
2019-02-19T04:55:14.829Z,1005.95
2019-02-19T04:56:13.384Z,1005.91
2019-02-19T04:57:11.963Z,1005.93
2019-02-19T04:58:10.509Z,1005.95
2019-02-19T04:59:09.061Z,1005.91
2019-02-19T05:00:07.605Z,1005.93
2019-02-19T05:01:06.177Z,1005.95
2019-02-19T05:02:04.689Z,1005.95
2019-02-19T05:03:03.268Z,1005.93
2019-02-19T05:04:01.899Z,1005.93
2019-02-19T05:05:00.660Z,1005.97
2019-02-19T05:05:59.456Z,1005.98
2019-02-19T05:06:58.125Z,1005.93
2019-02-19T05:09:38.465Z,1005.97
2019-02-19T05:10:37.204Z,1005.97
2019-02-19T05:11:35.727Z,1005.98
2019-02-19T05:12:34.286Z,1005.99
2019-02-19T05:13:33.066Z,1006.02
2019-02-19T05:14:31.646Z,1005.98
2019-02-19T05:15:30.181Z,1006.01
2019-02-19T05:16:28.761Z,1006.06
2019-02-19T05:17:27.321Z,1006.08
2019-02-19T05:18:25.860Z,1006.1
2019-02-19T05:19:24.403Z,1006.09
2019-02-19T05:20:23.236Z,1006.09
2019-02-19T05:21:21.788Z,1006.04
2019-02-19T05:22:20.327Z,1006.02
2019-02-19T05:23:19.283Z,1006.06
2019-02-19T05:24:17.951Z,1006.06
2019-02-19T05:25:16.517Z,1006.06
2019-02-19T05:26:15.075Z,1006.05
2019-02-19T05:37:55.841Z,1006.07
2019-02-19T05:38:54.517Z,1006.05
2019-02-19T05:39:53.080Z,1006.1
2019-02-19T05:40:51.660Z,1006.09
2019-02-19T05:41:50.182Z,1006.11
2019-02-19T05:42:48.757Z,1006.09
2019-02-19T05:43:47.284Z,1006.11
2019-02-19T05:44:45.865Z,1006.06
2019-02-19T05:45:44.423Z,1006.1
2019-02-19T05:46:49.529Z,1006.11
2019-02-19T05:47:41.857Z,1006.1
2019-02-19T05:48:40.433Z,1006.12
2019-02-19T05:49:39.152Z,1006.11
2019-02-19T05:50:37.704Z,1006.16
2019-02-19T05:51:36.304Z,1006.16
2019-02-19T05:52:34.860Z,1006.17
2019-02-19T05:53:33.437Z,1006.17
2019-02-19T05:54:31.984Z,1006.18
2019-02-19T05:55:30.859Z,1006.15
2019-02-19T05:56:29.599Z,1006.13
2019-02-19T05:57:28.144Z,1006.15
2019-02-19T05:58:26.819Z,1006.2
2019-02-19T05:59:25.358Z,1006.21
2019-02-19T06:00:23.926Z,1006.23
2019-02-19T06:01:22.473Z,1006.24
2019-02-19T06:02:21.016Z,1006.29
2019-02-19T06:03:19.548Z,1006.31
2019-02-19T06:05:59.855Z,1006.36
2019-02-19T06:06:58.387Z,1006.34
2019-02-19T06:07:57.024Z,1006.39
2019-02-19T06:08:55.680Z,1006.39
2019-02-19T06:09:54.237Z,1006.38
2019-02-19T06:10:52.991Z,1006.43
2019-02-19T06:11:51.559Z,1006.48
2019-02-19T06:12:50.097Z,1006.38
2019-02-19T06:13:48.644Z,1006.41
2019-02-19T06:14:47.217Z,1006.39
2019-02-19T06:15:45.784Z,1006.37
2019-02-19T06:16:44.315Z,1006.41
2019-02-19T06:34:27.346Z,1006.51
2019-02-19T06:35:25.880Z,1006.57
2019-02-19T06:36:24.432Z,1006.61
2019-02-19T06:37:23.017Z,1006.58
2019-02-19T06:38:21.661Z,1006.63
2019-02-19T06:39:20.212Z,1006.62
2019-02-19T06:40:18.784Z,1006.67
2019-02-19T06:41:17.484Z,1006.7
2019-02-19T06:42:16.088Z,1006.74
2019-02-19T06:43:14.808Z,1006.73
2019-02-19T06:44:13.428Z,1006.76
2019-02-19T06:45:11.899Z,1006.81
2019-02-19T06:46:10.441Z,1006.78
2019-02-19T06:47:08.984Z,1006.8
2019-02-19T06:48:07.530Z,1006.8
2019-02-19T06:49:06.181Z,1006.84
2019-02-19T06:50:04.966Z,1006.78
2019-02-19T06:51:03.655Z,1006.78
2019-02-19T06:52:02.215Z,1006.76
2019-02-19T06:53:00.885Z,1006.83
2019-02-19T06:54:00.035Z,1006.85
2019-02-19T06:54:58.555Z,1006.83
2019-02-19T06:55:57.396Z,1006.81
2019-02-19T06:56:56.045Z,1006.83
2019-02-19T06:57:54.625Z,1006.8
2019-02-19T06:58:53.134Z,1006.84
2019-02-19T06:59:51.726Z,1006.86
2019-02-19T07:00:50.352Z,1006.81
2019-02-19T07:01:48.877Z,1006.86
2019-02-19T07:02:47.468Z,1006.93
2019-02-19T07:03:46.021Z,1006.89
2019-02-19T07:04:44.644Z,1006.87
2019-02-19T07:05:43.235Z,1006.86
2019-02-19T07:06:42.218Z,1006.86
2019-02-19T07:07:40.791Z,1006.8
2019-02-19T07:08:39.351Z,1006.85
2019-02-19T07:09:37.916Z,1006.83
2019-02-19T07:10:36.688Z,1006.81
2019-02-19T07:11:35.479Z,1006.88
2019-02-19T07:12:33.981Z,1006.84
2019-02-19T07:13:32.626Z,1006.87
2019-02-19T07:14:31.244Z,1006.87
2019-02-19T07:15:29.812Z,1006.82
2019-02-19T07:16:28.369Z,1006.84
2019-02-19T07:17:27.004Z,1006.88
2019-02-19T07:18:25.590Z,1006.9
2019-02-19T07:19:24.126Z,1006.89
2019-02-19T07:20:22.983Z,1006.9
2019-02-19T07:21:21.676Z,1006.99
2019-02-19T07:22:20.320Z,1006.98
2019-02-19T07:23:18.923Z,1007.05
2019-02-19T07:24:17.471Z,1006.98
2019-02-19T07:25:16.025Z,1006.99
2019-02-19T07:26:14.616Z,1007
2019-02-19T07:27:13.285Z,1006.96
2019-02-19T07:28:11.859Z,1006.98
2019-02-19T07:29:10.641Z,1007.04
2019-02-19T07:30:09.484Z,1007.09
2019-02-19T07:31:08.053Z,1007.07
2019-02-19T07:32:06.697Z,1007.06
2019-02-19T07:33:05.303Z,1007.07
2019-02-19T07:34:03.844Z,1007.07
2019-02-19T07:35:02.472Z,1007.09
2019-02-19T07:36:01.168Z,1007.06
2019-02-19T07:36:59.685Z,1007.08
2019-02-19T07:37:58.326Z,1007.09
2019-02-19T07:38:57.162Z,1007.08
2019-02-19T07:39:55.754Z,1007.1
2019-02-19T07:40:54.285Z,1007.08
2019-02-19T07:41:52.829Z,1007.09
2019-02-19T07:42:51.380Z,1007.07
2019-02-19T07:43:49.966Z,1007.14
2019-02-19T07:44:48.567Z,1007.2
2019-02-19T07:45:47.367Z,1007.15
2019-02-19T07:46:46.017Z,1007.13
2019-02-19T07:47:44.815Z,1007.12
2019-02-19T07:48:43.359Z,1007.23
2019-02-19T07:49:41.903Z,1007.18
2019-02-19T07:50:40.790Z,1007.19
2019-02-19T07:51:39.532Z,1007.27
2019-02-19T07:52:38.088Z,1007.26
2019-02-19T07:53:36.912Z,1007.27
2019-02-19T07:54:35.478Z,1007.29
2019-02-19T07:55:34.011Z,1007.32
2019-02-19T07:56:32.585Z,1007.32
2019-02-19T07:57:31.137Z,1007.36
2019-02-19T07:58:29.834Z,1007.33
2019-02-19T07:59:28.331Z,1007.29
2019-02-19T08:00:27.242Z,1007.35
2019-02-19T08:01:25.846Z,1007.33
2019-02-19T08:02:25.380Z,1007.33
2019-02-19T08:03:23.970Z,1007.31
2019-02-19T08:04:22.594Z,1007.33
2019-02-19T08:05:21.130Z,1007.38
2019-02-19T08:06:19.719Z,1007.42
2019-02-19T08:07:18.290Z,1007.42
2019-02-19T08:08:16.882Z,1007.41
2019-02-19T08:09:15.569Z,1007.47
2019-02-19T08:10:14.127Z,1007.48
2019-02-19T08:11:12.917Z,1007.5
2019-02-19T08:12:11.573Z,1007.48
2019-02-19T08:13:10.156Z,1007.5
2019-02-19T08:14:08.771Z,1007.52
2019-02-19T08:15:07.321Z,1007.47
2019-02-19T08:16:05.869Z,1007.5
2019-02-19T08:17:04.465Z,1007.53
2019-02-19T08:18:02.998Z,1007.55
2019-02-19T08:19:01.665Z,1007.55
2019-02-19T08:20:00.533Z,1007.54
2019-02-19T08:20:58.813Z,1007.5
2019-02-19T08:21:57.474Z,1007.5
2019-02-19T08:22:56.943Z,1007.59
2019-02-19T08:23:54.796Z,1007.55
2019-02-19T08:24:53.377Z,1007.55
2019-02-19T08:25:51.972Z,1007.62
2019-02-19T08:26:50.496Z,1007.67
2019-02-19T08:27:50.729Z,1007.67
2019-02-19T08:28:47.723Z,1007.69
2019-02-19T08:29:46.265Z,1007.72
2019-02-19T08:30:45.036Z,1007.72
2019-02-19T08:31:43.803Z,1007.75
2019-02-19T08:32:42.527Z,1007.74
2019-02-19T08:33:41.326Z,1007.84
2019-02-19T08:34:39.938Z,1007.84
2019-02-19T08:35:38.524Z,1007.83
2019-02-19T08:36:37.195Z,1007.85
2019-02-19T08:37:35.869Z,1007.83
2019-02-19T08:38:34.642Z,1007.86
2019-02-19T08:39:33.185Z,1007.86
2019-02-19T08:40:31.721Z,1007.87
2019-02-19T08:41:30.303Z,1007.86
2019-02-19T08:42:29.133Z,1007.94
2019-02-19T08:43:27.655Z,1007.95
2019-02-19T08:44:26.219Z,1007.96
2019-02-19T08:45:24.827Z,1007.97
2019-02-19T08:46:23.607Z,1007.96
2019-02-19T08:47:22.174Z,1008.03
2019-02-19T08:48:20.813Z,1008.06
2019-02-19T08:49:19.408Z,1008.02
2019-02-19T08:50:17.937Z,1008.04
2019-02-19T08:51:16.486Z,1008.02
2019-02-19T08:52:15.076Z,1008.03
2019-02-19T08:53:13.684Z,1008.06
2019-02-19T08:54:12.280Z,1008.04
2019-02-19T08:55:11.009Z,1008.05
2019-02-19T08:56:09.897Z,1008.04
2019-02-19T08:57:08.925Z,1008.09
2019-02-19T08:58:07.489Z,1008.07
2019-02-19T08:59:06.221Z,1008.09
2019-02-19T09:00:04.962Z,1008.05
2019-02-19T09:01:03.538Z,1008.07
2019-02-19T09:02:02.086Z,1008.12
2019-02-19T09:03:00.608Z,1008.11
2019-02-19T09:03:59.132Z,1008.16
2019-02-19T09:04:57.768Z,1008.2
2019-02-19T09:05:56.387Z,1008.19
2019-02-19T09:06:55.160Z,1008.18
2019-02-19T09:08:02.868Z,1008.19
2019-02-19T09:09:01.408Z,1008.17
2019-02-19T09:09:59.924Z,1008.3
2019-02-19T09:10:58.487Z,1008.29
2019-02-19T09:11:57.059Z,1008.24
2019-02-19T09:12:55.636Z,1008.31
2019-02-19T09:13:54.441Z,1008.26
2019-02-19T09:14:53.084Z,1008.29
2019-02-19T09:15:51.718Z,1008.31
2019-02-19T09:16:50.276Z,1008.28
2019-02-19T09:17:51.824Z,1008.34
2019-02-19T09:18:47.481Z,1008.36
2019-02-19T09:19:46.004Z,1008.35
2019-02-19T09:20:44.708Z,1008.43
2019-02-19T09:21:43.267Z,1008.37
2019-02-19T09:22:41.842Z,1008.42
2019-02-19T09:23:42.194Z,1008.45
2019-02-19T09:24:39.008Z,1008.49
2019-02-19T09:25:37.658Z,1008.48
2019-02-19T09:26:51.599Z,1008.44
2019-02-19T09:27:57.641Z,1008.5
2019-02-19T09:28:56.149Z,1008.51
2019-02-19T09:29:54.791Z,1008.52
2019-02-19T09:30:53.548Z,1008.55
2019-02-19T09:31:52.081Z,1008.47
2019-02-19T09:32:50.812Z,1008.49
2019-02-19T09:33:49.590Z,1008.46
2019-02-19T09:34:48.178Z,1008.49
2019-02-19T09:35:46.761Z,1008.55
2019-02-19T09:36:45.371Z,1008.56
2019-02-19T09:37:43.919Z,1008.55
2019-02-19T09:38:42.462Z,1008.6
2019-02-19T09:41:23.221Z,1008.6
2019-02-19T09:42:21.773Z,1008.62
2019-02-19T09:43:20.333Z,1008.61
2019-02-19T09:44:18.880Z,1008.59
2019-02-19T09:45:17.427Z,1008.54
2019-02-19T09:46:15.996Z,1008.58
2019-02-19T09:47:14.517Z,1008.61
2019-02-19T09:48:13.098Z,1008.61
2019-02-19T09:49:11.719Z,1008.63
2019-02-19T09:50:10.265Z,1008.61
2019-02-19T10:08:34.492Z,1008.64
2019-02-19T10:09:33.340Z,1008.7
2019-02-19T10:10:31.872Z,1008.72
2019-02-19T10:11:30.460Z,1008.7
2019-02-19T10:12:29.131Z,1008.74
2019-02-19T10:13:27.885Z,1008.76
2019-02-19T10:14:26.502Z,1008.8
2019-02-19T10:15:25.199Z,1008.84
2019-02-19T10:16:23.841Z,1008.83
2019-02-19T10:17:22.739Z,1008.86
2019-02-19T10:18:21.252Z,1008.82
2019-02-19T10:19:19.875Z,1008.89
2019-02-19T10:20:18.455Z,1008.89
2019-02-19T10:21:17.182Z,1008.91
2019-02-19T10:22:15.923Z,1008.93
2019-02-19T10:23:14.625Z,1008.94
2019-02-19T10:24:13.220Z,1008.96
2019-02-19T10:25:11.825Z,1008.91
2019-02-19T10:26:10.694Z,1008.9
2019-02-19T10:27:09.528Z,1008.87
2019-02-19T10:28:08.128Z,1008.82
2019-02-19T10:29:06.788Z,1008.88
2019-02-19T10:30:05.326Z,1008.93
2019-02-19T10:31:03.870Z,1008.93
2019-02-19T10:32:02.372Z,1008.86
2019-02-19T10:33:00.923Z,1008.91
2019-02-19T10:33:59.485Z,1008.93
2019-02-19T10:34:58.067Z,1008.92
2019-02-19T10:35:56.884Z,1008.95
2019-02-19T10:36:55.955Z,1008.89
2019-02-19T10:37:54.558Z,1008.86
2019-02-19T10:38:53.571Z,1008.85
2019-02-19T10:39:52.332Z,1008.87
2019-02-19T10:40:50.865Z,1008.9
2019-02-19T10:41:49.499Z,1008.93
2019-02-19T10:42:48.105Z,1008.95
2019-02-19T10:43:46.617Z,1008.99
2019-02-19T10:44:45.828Z,1008.99
2019-02-19T10:45:44.546Z,1008.95
2019-02-19T10:46:43.116Z,1009.01
2019-02-19T10:47:41.927Z,1008.99
2019-02-19T10:48:40.454Z,1009.08
2019-02-19T10:49:38.979Z,1009.07
2019-02-19T10:50:37.750Z,1009.02
2019-02-19T10:51:36.741Z,1008.96
2019-02-19T10:52:35.875Z,1008.97
2019-02-19T10:53:34.541Z,1008.95
2019-02-19T10:54:33.540Z,1009
2019-02-19T10:55:32.173Z,1009.02
2019-02-19T10:56:31.012Z,1009.11
2019-02-19T10:57:29.619Z,1009.08
2019-02-19T10:58:28.362Z,1009.1
2019-02-19T10:59:27.089Z,1009.14
2019-02-19T11:00:25.625Z,1009.13
2019-02-19T11:01:24.326Z,1009.15
2019-02-19T11:02:23.062Z,1009.14
2019-02-19T11:03:21.664Z,1009.11
2019-02-19T11:04:20.445Z,1009.12
2019-02-19T11:05:19.200Z,1009.08
2019-02-19T11:06:18.076Z,1009.15
2019-02-19T11:07:16.719Z,1009.11
2019-02-19T11:08:15.271Z,1009.12
2019-02-19T11:09:13.803Z,1009.11
2019-02-19T11:10:13.466Z,1009.14
2019-02-19T11:11:11.145Z,1009.07
2019-02-19T11:12:09.925Z,1009.12
2019-02-19T11:13:08.457Z,1009.08
2019-02-19T11:14:07.554Z,1009.05
2019-02-19T11:15:06.264Z,1009.05
2019-02-19T11:16:04.929Z,1009.08
2019-02-19T11:17:03.743Z,1009.04
2019-02-19T11:18:03.740Z,1009.03
2019-02-19T11:19:00.959Z,1009.03
2019-02-19T11:19:59.636Z,1009.06
2019-02-19T11:20:58.202Z,1009.05
2019-02-19T11:21:56.993Z,1009.02
2019-02-19T11:22:56.040Z,1009.07
2019-02-19T11:23:54.580Z,1009.08
2019-02-19T11:24:53.182Z,1009.05
2019-02-19T11:25:51.900Z,1009.08
2019-02-19T11:26:50.522Z,1009.05
2019-02-19T11:27:49.325Z,1009.05
2019-02-19T11:28:47.850Z,1009.09
2019-02-19T11:29:46.388Z,1009.06
2019-02-19T11:30:45.150Z,1009.07
2019-02-19T11:31:43.872Z,1009.05
2019-02-19T11:32:42.433Z,1009.04
2019-02-19T11:33:41.324Z,1009.02
2019-02-19T11:34:40.051Z,1009.06
2019-02-19T11:35:38.650Z,1009.03
2019-02-19T11:36:37.690Z,1009.09
2019-02-19T11:37:37.401Z,1009.05
2019-02-19T11:38:35.147Z,1009.04
2019-02-19T11:39:33.769Z,1009.01
2019-02-19T11:40:32.633Z,1008.99
2019-02-19T11:41:31.297Z,1009.01
2019-02-19T11:42:30.005Z,1009.02
2019-02-19T11:43:28.593Z,1009.02
2019-02-19T11:44:27.316Z,1008.97
2019-02-19T11:45:25.913Z,1008.97
2019-02-19T11:46:24.614Z,1008.98
2019-02-19T11:49:05.240Z,1008.93
2019-02-19T11:50:04.279Z,1008.98
2019-02-19T11:51:02.829Z,1008.97
2019-02-19T11:52:01.661Z,1008.95
2019-02-19T11:53:00.191Z,1008.97
2019-02-19T11:53:58.775Z,1008.97
2019-02-19T11:54:57.348Z,1008.96
2019-02-19T11:55:55.918Z,1008.97
2019-02-19T11:56:54.647Z,1008.94
2019-02-19T11:57:53.215Z,1008.95
2019-02-19T11:58:51.895Z,1008.9
2019-02-19T11:59:50.405Z,1008.92
2019-02-19T12:00:49.050Z,1008.9
2019-02-19T12:01:47.773Z,1008.84
2019-02-19T12:02:46.337Z,1008.84
2019-02-19T12:03:44.978Z,1008.84
2019-02-19T12:04:43.573Z,1008.82
2019-02-19T12:05:42.144Z,1008.8
2019-02-19T12:06:40.652Z,1008.84
2019-02-19T12:07:39.488Z,1008.85
2019-02-19T12:08:39.137Z,1008.85
2019-02-19T12:09:36.942Z,1008.82
2019-02-19T12:10:35.525Z,1008.81
2019-02-19T12:11:34.092Z,1008.83
2019-02-19T12:12:32.660Z,1008.81
2019-02-19T12:13:31.243Z,1008.84
2019-02-19T12:14:29.795Z,1008.81
2019-02-19T12:15:34.847Z,1008.84
2019-02-19T12:16:27.009Z,1008.86
2019-02-19T12:17:25.592Z,1008.92
2019-02-19T12:18:24.109Z,1008.92
2019-02-19T12:19:22.772Z,1008.87
2019-02-19T12:20:21.506Z,1008.92
2019-02-19T12:21:20.090Z,1008.93
2019-02-19T12:22:18.746Z,1008.9
2019-02-19T12:23:17.353Z,1008.9
2019-02-19T12:24:15.981Z,1008.88
2019-02-19T12:25:14.523Z,1008.88
2019-02-19T12:26:13.389Z,1008.91
2019-02-19T12:27:11.903Z,1008.9
2019-02-19T12:28:10.456Z,1008.9
2019-02-19T12:29:09.118Z,1008.87
2019-02-19T12:30:07.777Z,1008.83
2019-02-19T12:31:06.316Z,1008.87
2019-02-19T12:32:04.938Z,1008.81
2019-02-19T12:33:03.474Z,1008.75
2019-02-19T12:34:02.041Z,1008.77
2019-02-19T12:35:00.587Z,1008.8
2019-02-19T12:35:59.410Z,1008.77
2019-02-19T12:36:57.967Z,1008.76
2019-02-19T12:37:56.532Z,1008.77
2019-02-19T12:38:55.297Z,1008.77
2019-02-19T12:39:53.874Z,1008.73
2019-02-19T12:40:52.397Z,1008.74
2019-02-19T12:41:51.074Z,1008.71
2019-02-19T12:42:49.718Z,1008.75
2019-02-19T12:43:48.269Z,1008.72
2019-02-19T12:44:47.326Z,1008.73
2019-02-19T12:45:45.888Z,1008.71
2019-02-19T12:46:44.464Z,1008.69